createdAt,value
2018-10-06T00:00:14.606Z,0.50
2018-10-06T00:02:43.118Z,0.60
2018-10-06T00:05:11.684Z,0.63
2018-10-06T00:07:40.581Z,0.50
2018-10-06T00:10:09.304Z,0.50
2018-10-06T00:12:37.928Z,0.40
2018-10-06T00:15:06.746Z,0.57
2018-10-06T00:17:35.273Z,0.60
2018-10-06T00:20:04.070Z,0.37
2018-10-06T00:22:32.671Z,0.40
2018-10-06T00:25:01.148Z,0.50
2018-10-06T00:27:29.785Z,0.50
2018-10-06T00:29:58.423Z,0.60
2018-10-06T00:32:27.572Z,0.60
2018-10-06T00:34:56.354Z,0.67
2018-10-06T00:37:25.362Z,0.40
2018-10-06T00:39:54.755Z,0.40
2018-10-06T00:42:23.473Z,0.50
2018-10-06T00:44:52.308Z,0.30
2018-10-06T00:47:20.971Z,0.40
2018-10-06T00:49:49.930Z,0.40
2018-10-06T00:52:18.538Z,0.40
2018-10-06T00:54:47.246Z,0.37
2018-10-06T00:57:15.942Z,0.60
2018-10-06T00:59:44.580Z,0.60
2018-10-06T01:02:13.127Z,0.40
2018-10-06T01:04:41.709Z,0.50
2018-10-06T01:07:10.398Z,0.40
2018-10-06T01:09:39.461Z,0.40
2018-10-06T01:12:07.983Z,0.60
2018-10-06T01:14:36.538Z,0.60
2018-10-06T01:17:05.250Z,0.43
2018-10-06T01:19:35.597Z,0.70
2018-10-06T01:22:04.180Z,0.70
2018-10-06T01:24:32.660Z,0.50
2018-10-06T01:27:01.371Z,0.30
2018-10-06T01:29:31.737Z,0.33
2018-10-06T01:32:02.221Z,0.50
2018-10-06T01:34:30.781Z,0.43
2018-10-06T01:36:59.676Z,0.50
2018-10-06T01:39:28.151Z,0.50
2018-10-06T01:41:57.070Z,0.60
2018-10-06T01:44:25.772Z,0.40
2018-10-06T01:46:54.254Z,0.40
2018-10-06T01:49:22.854Z,0.40
2018-10-06T01:51:51.949Z,0.30
2018-10-06T01:54:20.698Z,0.50
2018-10-06T01:56:49.206Z,0.30
2018-10-06T01:59:17.854Z,0.30
2018-10-06T02:01:46.675Z,0.40
2018-10-06T02:04:15.288Z,0.40
2018-10-06T02:06:43.989Z,0.43
2018-10-06T02:09:12.805Z,0.40
2018-10-06T02:11:41.529Z,0.47
2018-10-06T02:14:10.230Z,0.30
2018-10-06T02:16:38.838Z,0.30
2018-10-06T02:19:07.438Z,0.30
2018-10-06T02:21:35.970Z,0.40
2018-10-06T02:24:04.515Z,0.40
2018-10-06T02:26:32.976Z,0.23
2018-10-06T02:29:01.607Z,0.40
2018-10-06T02:31:30.076Z,0.40
2018-10-06T02:33:58.639Z,0.57
2018-10-06T02:36:27.127Z,0.40
2018-10-06T02:38:56.013Z,0.57
2018-10-06T02:41:24.576Z,0.47
2018-10-06T02:43:53.206Z,0.40
2018-10-06T02:46:21.821Z,0.57
2018-10-06T02:48:50.454Z,0.50
2018-10-06T02:51:18.977Z,0.40
2018-10-06T02:53:47.769Z,0.50
2018-10-06T02:56:16.397Z,0.60
2018-10-06T02:58:45.230Z,0.50
2018-10-06T03:01:14.124Z,0.43
2018-10-06T03:03:42.742Z,0.30
2018-10-06T03:06:11.245Z,0.40
2018-10-06T03:08:40.331Z,0.50
2018-10-06T03:11:08.845Z,0.30
2018-10-06T03:13:37.493Z,0.30
2018-10-06T03:16:05.965Z,0.47
2018-10-06T03:18:34.544Z,0.63
2018-10-06T03:21:03.209Z,0.40
2018-10-06T03:23:31.799Z,0.33
2018-10-06T03:26:00.513Z,0.43
2018-10-06T03:28:29.035Z,0.43
2018-10-06T03:30:57.485Z,0.40
2018-10-06T03:33:26.053Z,0.40
2018-10-06T03:35:54.505Z,0.50
2018-10-06T03:38:22.967Z,0.60
2018-10-06T03:40:51.469Z,0.50
2018-10-06T03:43:20.206Z,0.40
2018-10-06T03:45:48.783Z,0.50
2018-10-06T03:48:17.384Z,0.50
2018-10-06T03:50:45.909Z,0.40
2018-10-06T03:53:14.565Z,0.40
2018-10-06T03:55:43.387Z,0.20
2018-10-06T03:58:11.881Z,0.30
2018-10-06T04:00:40.638Z,0.30
2018-10-06T04:03:09.343Z,0.40
2018-10-06T04:05:38.063Z,0.50
2018-10-06T04:08:06.600Z,0.47
2018-10-06T04:10:35.115Z,0.50
2018-10-06T04:13:03.589Z,0.50
2018-10-06T04:15:32.306Z,0.20
2018-10-06T04:18:00.791Z,0.50
2018-10-06T04:20:29.465Z,0.50
2018-10-06T04:22:57.888Z,0.43
2018-10-06T04:25:26.352Z,0.40
2018-10-06T04:27:54.841Z,0.33
2018-10-06T04:30:23.708Z,0.30
2018-10-06T04:32:52.189Z,0.40
2018-10-06T04:35:20.696Z,0.40
2018-10-06T04:37:49.284Z,0.30
2018-10-06T04:40:17.774Z,0.50
2018-10-06T04:42:46.304Z,0.40
2018-10-06T04:45:14.962Z,0.40
2018-10-06T04:47:43.490Z,0.40
2018-10-06T04:50:11.999Z,0.40
2018-10-06T04:52:40.591Z,0.30
2018-10-06T04:55:09.033Z,0.50
2018-10-06T04:57:37.548Z,0.50
2018-10-06T05:00:06.143Z,0.50
2018-10-06T05:02:34.736Z,0.40
2018-10-06T05:05:03.172Z,0.33
2018-10-06T05:07:31.639Z,0.40
2018-10-06T05:10:00.354Z,0.40
2018-10-06T05:12:28.865Z,0.40
2018-10-06T05:14:57.305Z,0.50
2018-10-06T05:17:26.145Z,0.60
2018-10-06T05:19:54.706Z,0.40
2018-10-06T05:22:23.166Z,0.40
2018-10-06T05:24:51.703Z,0.50
2018-10-06T05:27:20.355Z,0.40
2018-10-06T05:29:49.066Z,0.27
2018-10-06T05:34:06.615Z,0.50
2018-10-06T05:36:36.059Z,0.50
2018-10-06T05:39:06.216Z,0.33
2018-10-06T05:41:35.158Z,0.37
2018-10-06T05:44:03.652Z,0.50
2018-10-06T05:46:32.249Z,0.40
2018-10-06T05:49:01.815Z,0.40
2018-10-06T05:51:31.991Z,0.40
2018-10-06T05:54:02.345Z,0.50
2018-10-06T05:56:32.719Z,0.43
2018-10-06T05:59:01.247Z,0.47
2018-10-06T06:01:30.018Z,0.40
2018-10-06T06:03:58.721Z,0.37
2018-10-06T06:06:27.357Z,0.40
2018-10-06T06:08:55.942Z,0.60
2018-10-06T06:11:24.487Z,0.50
2018-10-06T06:13:53.067Z,0.43
2018-10-06T06:16:21.628Z,0.60
2018-10-06T06:18:50.173Z,0.60
2018-10-06T06:21:19.035Z,0.40
2018-10-06T06:23:47.557Z,0.50
2018-10-06T06:26:16.179Z,0.47
2018-10-06T06:28:44.754Z,0.70
2018-10-06T06:31:13.364Z,0.50
2018-10-06T06:33:42.006Z,0.60
2018-10-06T06:36:10.707Z,0.50
2018-10-06T06:38:39.421Z,0.50
2018-10-06T06:41:08.064Z,0.50
2018-10-06T06:43:36.844Z,0.60
2018-10-06T06:46:05.469Z,0.60
2018-10-06T06:48:34.705Z,0.30
2018-10-06T06:51:06.727Z,0.50
2018-10-06T06:53:35.399Z,0.40
2018-10-06T06:56:03.828Z,0.60
2018-10-06T06:58:32.374Z,0.60
2018-10-06T07:01:00.881Z,0.40
2018-10-06T07:03:29.468Z,0.43
2018-10-06T07:05:57.957Z,0.60
2018-10-06T07:08:26.582Z,0.70
2018-10-06T07:10:55.096Z,0.50
2018-10-06T07:13:23.568Z,0.33
2018-10-06T07:15:52.158Z,0.50
2018-10-06T07:18:20.679Z,0.60
2018-10-06T07:20:49.554Z,0.60
2018-10-06T07:23:18.048Z,0.43
2018-10-06T07:25:46.526Z,0.60
2018-10-06T07:28:15.053Z,0.50
2018-10-06T07:30:43.558Z,0.50
2018-10-06T07:33:12.105Z,0.53
2018-10-06T07:35:40.652Z,0.50
2018-10-06T07:38:09.124Z,0.50
2018-10-06T07:40:38.224Z,0.40
2018-10-06T07:43:17.337Z,0.50
2018-10-06T07:45:45.872Z,0.50
2018-10-06T07:48:14.479Z,0.60
2018-10-06T07:50:42.955Z,0.63
2018-10-06T07:53:11.493Z,0.53
2018-10-06T07:55:40.102Z,0.40
2018-10-06T07:58:08.641Z,0.70
2018-10-06T08:00:37.153Z,0.40
2018-10-06T08:03:05.670Z,0.50
2018-10-06T08:05:34.122Z,0.30
2018-10-06T08:08:02.734Z,0.40
2018-10-06T08:10:31.254Z,0.47
2018-10-06T08:12:59.733Z,0.60
2018-10-06T08:15:28.212Z,0.50
2018-10-06T08:17:56.706Z,0.60
2018-10-06T08:20:25.162Z,0.70
2018-10-06T08:22:53.821Z,0.70
2018-10-06T08:25:22.385Z,0.40
2018-10-06T08:27:50.866Z,0.70
2018-10-06T08:30:19.341Z,0.60
2018-10-06T08:32:47.838Z,0.43
2018-10-06T08:35:16.266Z,0.60
2018-10-06T08:37:44.789Z,0.40
2018-10-06T08:40:13.297Z,0.60
2018-10-06T08:42:41.902Z,0.60
2018-10-06T08:45:10.468Z,0.50
2018-10-06T08:47:39.159Z,0.60
2018-10-06T08:50:07.858Z,0.47
2018-10-06T08:52:36.365Z,0.80
2018-10-06T08:55:04.861Z,0.50
2018-10-06T08:57:33.385Z,0.70
2018-10-06T09:00:01.960Z,0.77
2018-10-06T09:02:30.425Z,0.60
2018-10-06T09:04:58.912Z,0.50
2018-10-06T09:07:27.411Z,0.60
2018-10-06T09:09:55.926Z,0.83
2018-10-06T09:12:24.575Z,0.60
2018-10-06T09:14:53.130Z,0.60
2018-10-06T09:17:21.598Z,0.60
2018-10-06T09:19:50.059Z,0.60
2018-10-06T09:22:18.758Z,0.50
2018-10-06T09:24:47.250Z,0.60
2018-10-06T09:27:15.738Z,0.60
2018-10-06T09:29:44.187Z,0.67
2018-10-06T09:32:12.698Z,0.60
2018-10-06T09:34:41.198Z,0.50
2018-10-06T09:37:10.031Z,0.63
2018-10-06T09:39:38.729Z,0.50
2018-10-06T09:42:07.378Z,0.60
2018-10-06T09:44:35.766Z,0.40
2018-10-06T09:47:04.566Z,0.60
2018-10-06T09:49:33.209Z,0.50
2018-10-06T09:52:01.821Z,0.70
2018-10-06T09:54:30.279Z,0.67
2018-10-06T09:56:58.874Z,0.73
2018-10-06T09:59:28.376Z,0.67
2018-10-06T10:02:01.923Z,0.67
2018-10-06T10:04:30.378Z,0.70
2018-10-06T10:06:58.885Z,0.50
2018-10-06T10:09:27.534Z,0.70
2018-10-06T10:11:56.126Z,0.60
2018-10-06T10:14:24.982Z,0.50
2018-10-06T10:16:53.521Z,0.50
2018-10-06T10:19:22.018Z,0.67
2018-10-06T10:21:50.610Z,0.70
2018-10-06T10:24:19.016Z,0.70
2018-10-06T10:26:47.845Z,0.60
2018-10-06T10:29:16.463Z,0.60
2018-10-06T10:31:44.945Z,0.60
2018-10-06T10:34:13.679Z,0.53
2018-10-06T10:36:42.429Z,0.60
2018-10-06T10:39:11.022Z,0.80
2018-10-06T10:41:39.774Z,0.90
2018-10-06T10:44:08.371Z,0.80
2018-10-06T10:46:36.791Z,0.60
2018-10-06T10:49:05.248Z,0.80
2018-10-06T10:51:33.768Z,0.80
2018-10-06T10:54:02.547Z,0.80
2018-10-06T10:56:31.077Z,0.70
2018-10-06T10:58:59.734Z,0.77
2018-10-06T11:01:28.212Z,0.60
2018-10-06T11:03:57.021Z,0.80
2018-10-06T11:06:25.477Z,0.70
2018-10-06T11:08:54.085Z,0.60
2018-10-06T11:11:22.622Z,0.90
2018-10-06T11:13:51.057Z,0.60
2018-10-06T11:16:19.514Z,0.90
2018-10-06T11:18:48.031Z,0.60
2018-10-06T11:21:16.579Z,0.70
2018-10-06T11:23:45.118Z,0.70
2018-10-06T11:26:13.941Z,0.80
2018-10-06T11:28:42.429Z,0.70
2018-10-06T11:31:11.041Z,0.70
2018-10-06T11:33:39.817Z,0.67
2018-10-06T11:36:08.378Z,0.80
2018-10-06T11:38:36.932Z,0.87
2018-10-06T11:41:05.473Z,0.90
2018-10-06T11:43:34.165Z,0.70
2018-10-06T11:46:02.825Z,0.50
2018-10-06T11:48:31.297Z,0.80
2018-10-06T11:51:00.035Z,0.67
2018-10-06T11:53:28.824Z,0.97
2018-10-06T11:55:57.427Z,0.60
2018-10-06T11:58:25.938Z,0.80
2018-10-06T12:00:54.444Z,0.70
2018-10-06T12:03:23.074Z,0.63
2018-10-06T12:05:51.592Z,0.77
2018-10-06T12:08:20.297Z,0.50
2018-10-06T12:10:48.810Z,0.70
2018-10-06T12:13:17.418Z,0.63
2018-10-06T12:15:46.231Z,0.80
2018-10-06T12:18:14.794Z,0.70
2018-10-06T12:20:43.340Z,0.70
2018-10-06T12:23:11.985Z,0.70
2018-10-06T12:25:40.549Z,0.77
2018-10-06T12:28:09.043Z,0.67
2018-10-06T12:30:37.576Z,0.80
2018-10-06T12:33:06.165Z,0.50
2018-10-06T12:35:34.738Z,0.80
2018-10-06T12:38:03.261Z,0.60
2018-10-06T12:40:31.723Z,0.80
2018-10-06T12:43:00.277Z,1.03
2018-10-06T12:45:28.718Z,0.60
2018-10-06T12:47:57.617Z,1.00
2018-10-06T12:50:26.290Z,0.80
2018-10-06T12:52:54.830Z,0.80
2018-10-06T12:55:23.265Z,0.63
2018-10-06T12:57:51.823Z,0.97
2018-10-06T13:00:20.276Z,0.70
2018-10-06T13:02:48.721Z,0.90
2018-10-06T13:05:17.201Z,0.60
2018-10-06T13:07:45.760Z,0.80
2018-10-06T13:10:14.262Z,0.73
2018-10-06T13:12:43.026Z,0.70
2018-10-06T13:15:11.670Z,0.90
2018-10-06T13:17:41.191Z,0.70
2018-10-06T13:20:09.978Z,0.80
2018-10-06T13:22:38.766Z,0.80
2018-10-06T13:25:07.226Z,0.70
2018-10-06T13:27:35.892Z,0.83
2018-10-06T13:30:04.365Z,0.80
2018-10-06T13:32:32.908Z,1.00
2018-10-06T13:35:01.400Z,0.70
2018-10-06T13:37:29.897Z,0.70
2018-10-06T13:39:58.443Z,1.00
2018-10-06T13:42:26.945Z,0.80
2018-10-06T13:44:55.541Z,0.87
2018-10-06T13:47:23.992Z,0.80
2018-10-06T13:49:52.668Z,0.70
2018-10-06T13:52:21.386Z,0.73
2018-10-06T13:54:50.250Z,0.70
2018-10-06T13:57:18.759Z,0.50
2018-10-06T13:59:47.290Z,0.60
2018-10-06T14:02:15.797Z,0.70
2018-10-06T14:04:44.343Z,0.80
2018-10-06T14:07:13.656Z,0.70
2018-10-06T14:09:42.104Z,0.83
2018-10-06T14:12:10.664Z,0.80
2018-10-06T14:14:39.589Z,0.77
2018-10-06T14:17:08.035Z,0.83
2018-10-06T14:19:36.588Z,0.70
2018-10-06T14:22:05.082Z,0.90
2018-10-06T14:24:33.569Z,0.70
2018-10-06T14:27:02.070Z,0.60
2018-10-06T14:29:30.654Z,0.80
2018-10-06T14:31:59.100Z,0.73
2018-10-06T14:34:27.710Z,0.80
2018-10-06T14:36:56.349Z,0.70
2018-10-06T14:39:24.823Z,0.70
2018-10-06T14:41:53.315Z,0.70
2018-10-06T14:44:22.270Z,0.60
2018-10-06T14:46:50.693Z,0.60
2018-10-06T14:49:19.156Z,0.83
2018-10-06T14:51:47.706Z,1.00
2018-10-06T14:54:16.257Z,0.80
2018-10-06T14:56:45.030Z,0.60
2018-10-06T14:59:13.945Z,0.70
2018-10-06T15:01:42.969Z,0.77
2018-10-06T15:04:11.563Z,0.80
2018-10-06T15:06:41.270Z,1.00
2018-10-06T15:09:10.882Z,1.03
2018-10-06T15:11:40.227Z,0.70
2018-10-06T15:14:10.073Z,0.90
2018-10-06T15:16:39.217Z,0.80
2018-10-06T15:19:07.940Z,0.70
2018-10-06T15:21:37.391Z,0.60
2018-10-06T15:24:05.991Z,0.80
2018-10-06T15:26:34.897Z,0.73
2018-10-06T15:30:02.999Z,0.80
2018-10-06T15:32:32.080Z,0.70
2018-10-06T15:35:02.383Z,0.80
2018-10-06T15:37:31.092Z,0.70
2018-10-06T15:39:59.703Z,1.00
2018-10-06T15:42:29.583Z,1.07
2018-10-06T15:44:58.266Z,0.80
2018-10-06T15:47:26.985Z,0.90
2018-10-06T15:49:55.467Z,0.63
2018-10-06T15:52:24.005Z,0.73
2018-10-06T15:54:52.453Z,0.77
2018-10-06T15:57:21.017Z,0.80
2018-10-06T15:59:50.101Z,0.70
2018-10-06T16:02:18.689Z,0.93
2018-10-06T16:04:47.356Z,0.80
2018-10-06T16:07:16.053Z,0.80
2018-10-06T16:09:44.528Z,0.90
2018-10-06T16:12:13.253Z,0.90
2018-10-06T16:14:43.662Z,0.60
2018-10-06T16:17:12.326Z,0.83
2018-10-06T16:19:40.729Z,0.80
2018-10-06T16:22:09.205Z,1.20
2018-10-06T16:24:39.158Z,0.60
2018-10-06T16:27:07.655Z,1.20
2018-10-06T16:29:36.139Z,0.80
2018-10-06T16:32:04.658Z,1.00
2018-10-06T16:34:33.837Z,0.90
2018-10-06T16:37:02.277Z,1.00
2018-10-06T16:39:32.665Z,0.90
2018-10-06T16:42:01.219Z,0.93
2018-10-06T16:44:30.666Z,1.00
2018-10-06T16:47:00.063Z,0.93
2018-10-06T16:49:28.768Z,0.73
2018-10-06T16:51:57.371Z,0.80
2018-10-06T16:54:25.850Z,0.73
2018-10-06T16:56:54.293Z,0.90
2018-10-06T16:59:22.750Z,0.87
2018-10-06T17:01:59.086Z,0.70
2018-10-06T17:04:29.572Z,0.87
2018-10-06T17:06:58.186Z,0.70
2018-10-06T17:09:26.841Z,0.87
2018-10-06T17:11:56.791Z,1.07
2018-10-06T17:14:26.079Z,1.20
2018-10-06T17:16:54.920Z,0.80
2018-10-06T17:19:23.438Z,0.80
2018-10-06T17:21:51.850Z,0.87
2018-10-06T17:24:21.972Z,0.80
2018-10-06T17:26:50.547Z,0.90
2018-10-06T17:29:19.100Z,0.70
2018-10-06T17:31:47.840Z,0.60
2018-10-06T17:34:16.422Z,1.00
2018-10-06T17:36:44.839Z,0.90
2018-10-06T17:39:13.314Z,0.90
2018-10-06T17:41:41.840Z,0.90
2018-10-06T17:44:10.402Z,0.90
2018-10-06T17:46:39.018Z,0.70
2018-10-06T17:49:07.441Z,0.90
2018-10-06T17:51:35.902Z,0.60
2018-10-06T17:54:04.489Z,0.73
2018-10-06T17:56:32.936Z,0.73
2018-10-06T17:59:01.453Z,0.83
2018-10-06T18:01:30.039Z,0.80
2018-10-06T18:03:58.605Z,0.90
2018-10-06T18:06:27.054Z,1.00
2018-10-06T18:08:55.501Z,0.70
2018-10-06T18:11:24.020Z,0.70
2018-10-06T18:13:52.461Z,0.77
2018-10-06T18:16:21.149Z,0.87
2018-10-06T18:18:49.646Z,0.80
2018-10-06T18:21:18.281Z,0.93
2018-10-06T18:23:46.673Z,0.80
2018-10-06T18:26:15.190Z,0.60
2018-10-06T18:28:43.677Z,0.60
2018-10-06T18:31:12.530Z,0.80
2018-10-06T18:33:41.016Z,0.70
2018-10-06T18:36:09.756Z,0.90
2018-10-06T18:38:38.313Z,0.90
2018-10-06T18:41:06.950Z,0.97
2018-10-06T18:43:35.798Z,0.83
2018-10-06T18:46:04.652Z,1.10
2018-10-06T18:48:33.143Z,1.00
2018-10-06T18:51:01.748Z,0.93
2018-10-06T18:53:30.149Z,0.80
2018-10-06T18:55:58.777Z,0.73
2018-10-06T18:58:27.283Z,0.93
2018-10-06T19:00:55.687Z,0.80
2018-10-06T19:03:24.252Z,0.80
2018-10-06T19:05:52.681Z,0.83
2018-10-06T19:08:21.219Z,0.87
2018-10-06T19:10:49.917Z,0.80
2018-10-06T19:13:18.669Z,0.73
2018-10-06T19:15:47.217Z,0.80
2018-10-06T19:18:16.559Z,0.50
2018-10-06T19:20:45.262Z,0.80
2018-10-06T19:23:13.773Z,0.77
2018-10-06T19:25:42.439Z,0.87
2018-10-06T19:28:10.856Z,0.93
2018-10-06T19:30:39.844Z,0.73
2018-10-06T19:33:08.421Z,0.77
2018-10-06T19:35:36.961Z,0.70
2018-10-06T19:38:05.550Z,0.77
2018-10-06T19:40:34.133Z,1.00
2018-10-06T19:43:02.997Z,0.70
2018-10-06T19:45:31.513Z,0.77
2018-10-06T19:48:00.114Z,0.90
2018-10-06T19:50:28.809Z,0.80
2018-10-06T19:52:57.402Z,0.80
2018-10-06T19:55:25.873Z,0.67
2018-10-06T19:57:54.619Z,0.73
2018-10-06T20:00:23.130Z,0.70
2018-10-06T20:02:53.402Z,0.80
2018-10-06T20:05:22.084Z,0.87
2018-10-06T20:07:50.685Z,0.80
2018-10-06T20:10:19.318Z,0.67
2018-10-06T20:12:48.132Z,0.90
2018-10-06T20:15:16.821Z,1.10
2018-10-06T20:17:45.381Z,0.70
2018-10-06T20:20:14.052Z,1.00
2018-10-06T20:22:42.469Z,0.90
2018-10-06T20:25:10.978Z,0.70
2018-10-06T20:27:39.972Z,0.83
2018-10-06T20:30:08.622Z,0.70
2018-10-06T20:32:37.168Z,1.10
2018-10-06T20:35:05.744Z,0.83
2018-10-06T20:37:34.222Z,1.00
2018-10-06T20:40:03.158Z,0.80
2018-10-06T20:42:31.740Z,0.90
2018-10-06T20:45:00.282Z,0.90
2018-10-06T20:47:28.797Z,0.90
2018-10-06T20:49:57.406Z,0.83
2018-10-06T20:52:25.910Z,1.13
2018-10-06T20:54:54.504Z,0.80
2018-10-06T20:57:22.959Z,0.80
2018-10-06T20:59:51.587Z,0.90
2018-10-06T21:02:20.170Z,0.70
2018-10-06T21:04:48.668Z,0.80
2018-10-06T21:07:17.215Z,0.87
2018-10-06T21:09:45.687Z,0.80
2018-10-06T21:12:14.728Z,0.93
2018-10-06T21:14:43.249Z,0.80
2018-10-06T21:17:11.923Z,0.90
2018-10-06T21:19:40.721Z,0.97
2018-10-06T21:22:09.293Z,0.80
2018-10-06T21:24:37.888Z,0.73
2018-10-06T21:27:06.359Z,0.90
2018-10-06T21:29:34.997Z,0.80
2018-10-06T21:32:03.809Z,0.77
2018-10-06T21:34:32.486Z,0.80
2018-10-06T21:37:01.169Z,0.70
2018-10-06T21:39:29.853Z,0.80
2018-10-06T21:41:58.685Z,0.90
2018-10-06T21:44:27.353Z,0.80
2018-10-06T21:46:55.822Z,0.80
2018-10-06T21:49:24.478Z,0.67
2018-10-06T21:51:52.978Z,0.70
2018-10-06T21:54:21.512Z,0.77
2018-10-06T21:56:50.197Z,1.03
2018-10-06T21:59:19.655Z,0.97
2018-10-06T22:01:48.954Z,0.67
2018-10-06T22:04:17.781Z,1.07
2018-10-06T22:06:46.262Z,0.70
2018-10-06T22:09:14.813Z,0.90
2018-10-06T22:11:43.749Z,0.83
2018-10-06T22:14:12.355Z,0.70
2018-10-06T22:16:41.397Z,1.07
2018-10-06T22:19:09.905Z,1.00
2018-10-06T22:21:39.713Z,1.00
2018-10-06T22:24:08.205Z,0.90
2018-10-06T22:26:36.805Z,0.87
2018-10-06T22:29:05.329Z,0.80
2018-10-06T22:31:33.791Z,1.00
2018-10-06T22:34:02.225Z,0.90
2018-10-06T22:36:30.809Z,0.80
2018-10-06T22:38:59.264Z,0.77
2018-10-06T22:41:27.677Z,0.90
2018-10-06T22:43:56.135Z,0.80
2018-10-06T22:46:24.594Z,0.80
2018-10-06T22:48:53.022Z,0.70
2018-10-06T22:51:21.494Z,0.77
2018-10-06T22:53:50.022Z,0.93
2018-10-06T22:56:18.521Z,0.80
2018-10-06T22:58:46.954Z,1.07
2018-10-06T23:01:15.395Z,0.93
2018-10-06T23:03:43.837Z,0.90
2018-10-06T23:06:12.262Z,0.90
2018-10-06T23:08:40.702Z,1.00
2018-10-06T23:11:09.161Z,0.70
2018-10-06T23:13:38.329Z,0.80
2018-10-06T23:16:06.926Z,0.77
2018-10-06T23:18:35.338Z,1.10
2018-10-06T23:21:03.933Z,1.00
2018-10-06T23:23:32.405Z,0.87
2018-10-06T23:26:00.840Z,0.90
2018-10-06T23:28:29.294Z,0.70
2018-10-06T23:30:57.819Z,0.60
2018-10-06T23:33:26.336Z,0.83
2018-10-06T23:35:54.815Z,1.07
2018-10-06T23:38:23.405Z,0.70
2018-10-06T23:40:51.862Z,0.80
2018-10-06T23:43:20.293Z,0.70
2018-10-06T23:45:48.861Z,0.77
2018-10-06T23:48:17.332Z,0.93
2018-10-06T23:50:45.850Z,0.93
2018-10-06T23:53:14.536Z,0.77
2018-10-06T23:55:58.470Z,0.90
2018-10-06T23:58:29.454Z,0.80
